High Falls, NY

1:08 PM EDT on August 22, 2014 (GMT -0400)
Stewart International | Change Station
CLOSE
Current Station
Airport
Location: Newburgh,
Elevation: 492 ft
Nearby Weather Stations

Elev 492 ft 41.50 °N, 74.10 °W | Updated 1 hour ago

Mostly Cloudy
Mostly Cloudy
70 °F
Feels Like 70 °F
N
6
Wind Variable Wind from Variable

Today
High -- | Low -- °F
--% Chance of Precip.
Yesterday
High -- | Low -- °F
Precip. -- in
6:11 AM 7:46 PM
Waning Crescent, 7% visible
Pressure 30.08 in
Visibility 15.0 miles
Clouds Scattered Clouds 1200 ft
Mostly Cloudy 3000 ft
Dew Point 64 °F
Humidity 83%
Rainfall 0.00 in
Snow Depth Not available.
UV 5 out of 12
Pollen 3.80 out of 12
PM2.5 Good
Flu Activity Not available.
METAR KSWF 221545Z VRB05KT 15SM SCT012 BKN030 21/18 A3008

More Conditions Fewer Conditions

Pressure 30.08 in
Visibility 15.0 miles
Clouds Scattered Clouds 1200 ft
Mostly Cloudy 3000 ft
Dew Point 64 °F
Humidity 83%
Rainfall 0.00 in
Snow Depth Not available.
UV 5 out of 12
Pollen 3.80 out of 12
PM2.5 Good
Flu Activity Not available.
METAR KSWF 221545Z VRB05KT 15SM SCT012 BKN030 21/18 A3008

More Conditions Fewer Conditions

10-Day Weather Forecast

Almanac

Astronomy

Aug. 22, 2014 Rise Set
Actual Time 6:11 AM EDT 7:46 PM EDT
Civil Twilight 5:42 AM EDT 8:15 PM EDT
Nautical Twilight 5:07 AM EDT 8:50 PM EDT
Astronomical Twilight 4:29 AM EDT 9:28 PM EDT
Moon 3:31 AM EDT 5:53 PM EDT
Length of Visible Light 14h 32m
Length of Day
13h 34m
Tomorrow will be 2m 36s shorter.
Waning Crescent, 7% of the Moon is Illuminated
Today
Waning Crescent
Aug 25
New
Sep 2
First Quarter
Sep 8
Full
Sep 15
Last Quarter

Today's Extremes

State Highs State Lows

Community

WunderPhotos

Upload Photos

1,746,203 photos uploaded!

Nearby

Air Quality

  Air Quality AQ Index Pollutant
Yesterday Good
OZONE
Yesterday Good
PM2.5
Current Good
PM2.5
Friday Good
OZONE
Friday Good
PM2.5
Saturday Good
OZONE
Sunday Good
OZONE
Monday Good
OZONE

Snow Depth

Station Depth Elevation
No new snow has been reported.

Earthquake Activity

City Distance Mag. Time & Date
No recent earthquake activity has been reported nearby.
Minimum magnitude displayed is 2.5.

Coastal Water Temperatures

Place Temperature
No Stations Reporting

Nearby Weather Stations